sensor_id;sensor_type;location;lat;lon;timestamp;pressure;altitude;pressure_sealevel;temperature;humidity
13836;BME280;6988;52.614;13.500;2023-12-29T00:03:11;54709.38;;;-143.77;70.41
13836;BME280;6988;52.614;13.500;2023-12-29T00:08:05;54690.91;;;-143.77;70.29
13836;BME280;6988;52.614;13.500;2023-12-29T00:12:57;54713.47;;;-143.77;70.24
13836;BME280;6988;52.614;13.500;2023-12-29T00:17:49;54701.16;;;-143.77;70.25
13836;BME280;6988;52.614;13.500;2023-12-29T00:22:44;54686.81;;;-143.77;69.90
13836;BME280;6988;52.614;13.500;2023-12-29T00:27:37;54692.97;;;-143.77;70.12
13836;BME280;6988;52.614;13.500;2023-12-29T00:32:28;54748.38;;;-143.77;70.20
13836;BME280;6988;52.614;13.500;2023-12-29T00:37:21;54674.50;;;-143.77;70.41
13836;BME280;6988;52.614;13.500;2023-12-29T00:42:14;54651.91;;;-143.77;70.07
13836;BME280;6988;52.614;13.500;2023-12-29T00:47:06;54703.22;;;-143.77;70.20
13836;BME280;6988;52.614;13.500;2023-12-29T00:51:58;54676.53;;;-143.77;69.94
13836;BME280;6988;52.614;13.500;2023-12-29T00:56:51;54695.00;;;-143.77;70.01
13836;BME280;6988;52.614;13.500;2023-12-29T01:01:44;54672.44;;;-143.77;69.41
13836;BME280;6988;52.614;13.500;2023-12-29T01:06:37;54649.88;;;-143.77;69.30
13836;BME280;6988;52.614;13.500;2023-12-29T01:11:28;54688.84;;;-143.77;69.18
13836;BME280;6988;52.614;13.500;2023-12-29T01:16:21;54664.22;;;-143.77;69.05
13836;BME280;6988;52.614;13.500;2023-12-29T01:21:14;54684.75;;;-143.77;68.79
13836;BME280;6988;52.614;13.500;2023-12-29T01:26:05;54639.59;;;-143.77;68.51
13836;BME280;6988;52.614;13.500;2023-12-29T01:30:57;54707.31;;;-143.77;68.54
13836;BME280;6988;52.614;13.500;2023-12-29T01:35:49;54649.88;;;-143.77;68.34
13836;BME280;6988;52.614;13.500;2023-12-29T01:40:54;54647.81;;;-143.77;68.41
13836;BME280;6988;52.614;13.500;2023-12-29T01:45:46;54678.59;;;-143.77;68.20
13836;BME280;6988;52.614;13.500;2023-12-29T01:50:38;54664.22;;;-143.77;68.25
13836;BME280;6988;52.614;13.500;2023-12-29T01:55:32;54660.13;;;-143.77;68.37
13836;BME280;6988;52.614;13.500;2023-12-29T02:00:26;54709.38;;;-143.77;68.21
13836;BME280;6988;52.614;13.500;2023-12-29T02:05:22;54633.44;;;-143.77;68.41
13836;BME280;6988;52.614;13.500;2023-12-29T02:10:15;54680.66;;;-143.77;68.15
13836;BME280;6988;52.614;13.500;2023-12-29T02:15:09;54697.06;;;-143.77;68.27
13836;BME280;6988;52.614;13.500;2023-12-29T02:20:04;54662.19;;;-143.77;68.27
13836;BME280;6988;52.614;13.500;2023-12-29T02:24:58;54653.97;;;-143.77;68.24
13836;BME280;6988;52.614;13.500;2023-12-29T02:30:04;54695.00;;;-143.77;68.21
13836;BME280;6988;52.614;13.500;2023-12-29T02:35:01;54660.13;;;-143.77;68.36
13836;BME280;6988;52.614;13.500;2023-12-29T02:39:57;54647.81;;;-143.77;68.14
13836;BME280;6988;52.614;13.500;2023-12-29T02:44:50;54672.44;;;-143.77;68.03
13836;BME280;6988;52.614;13.500;2023-12-29T02:49:42;54682.69;;;-143.77;68.06
13836;BME280;6988;52.614;13.500;2023-12-29T02:54:34;54664.22;;;-143.77;67.99
13836;BME280;6988;52.614;13.500;2023-12-29T02:59:25;54697.06;;;-143.77;67.87
13836;BME280;6988;52.614;13.500;2023-12-29T03:04:18;54668.34;;;-143.77;67.96
13836;BME280;6988;52.614;13.500;2023-12-29T03:09:10;54653.97;;;-143.77;67.85
13836;BME280;6988;52.614;13.500;2023-12-29T03:14:02;54684.75;;;-143.77;67.92
13836;BME280;6988;52.614;13.500;2023-12-29T03:18:54;54695.00;;;-143.77;67.95
13836;BME280;6988;52.614;13.500;2023-12-29T03:23:48;54668.34;;;-143.77;67.94
13836;BME280;6988;52.614;13.500;2023-12-29T03:28:40;54651.91;;;-143.77;67.52
13836;BME280;6988;52.614;13.500;2023-12-29T03:33:32;54672.44;;;-143.77;67.54
13836;BME280;6988;52.614;13.500;2023-12-29T03:38:23;54660.13;;;-143.77;67.59
13836;BME280;6988;52.614;13.500;2023-12-29T03:43:16;54623.19;;;-143.77;67.29
13836;BME280;6988;52.614;13.500;2023-12-29T03:48:08;54676.53;;;-143.77;67.56
13836;BME280;6988;52.614;13.500;2023-12-29T03:53:00;54643.72;;;-143.77;67.35
13836;BME280;6988;52.614;13.500;2023-12-29T03:57:52;54643.72;;;-143.77;67.27
13836;BME280;6988;52.614;13.500;2023-12-29T04:02:45;54705.28;;;-143.77;67.07
13836;BME280;6988;52.614;13.500;2023-12-29T04:07:39;54656.03;;;-143.77;67.43
13836;BME280;6988;52.614;13.500;2023-12-29T04:12:30;54684.75;;;-143.77;67.26
13836;BME280;6988;52.614;13.500;2023-12-29T04:17:22;54717.59;;;-143.77;67.08
13836;BME280;6988;52.614;13.500;2023-12-29T04:22:15;54649.88;;;-143.77;67.69
13836;BME280;6988;52.614;13.500;2023-12-29T04:27:07;54670.38;;;-143.77;67.81
13836;BME280;6988;52.614;13.500;2023-12-29T04:31:59;54672.44;;;-143.77;67.80
13836;BME280;6988;52.614;13.500;2023-12-29T04:36:50;54676.53;;;-143.77;67.47
13836;BME280;6988;52.614;13.500;2023-12-29T04:41:43;54664.22;;;-143.77;67.23
13836;BME280;6988;52.614;13.500;2023-12-29T04:46:35;54664.22;;;-143.77;67.75
13836;BME280;6988;52.614;13.500;2023-12-29T04:51:27;54664.22;;;-143.77;67.41
13836;BME280;6988;52.614;13.500;2023-12-29T04:56:19;54651.91;;;-143.77;67.10
13836;BME280;6988;52.614;13.500;2023-12-29T05:01:12;54709.38;;;-143.77;67.36
13836;BME280;6988;52.614;13.500;2023-12-29T05:06:04;54684.75;;;-143.77;67.77
13836;BME280;6988;52.614;13.500;2023-12-29T05:10:56;54662.19;;;-143.77;67.75
13836;BME280;6988;52.614;13.500;2023-12-29T05:15:48;54699.13;;;-143.77;68.08
13836;BME280;6988;52.614;13.500;2023-12-29T05:20:41;54676.53;;;-143.77;68.01
13836;BME280;6988;52.614;13.500;2023-12-29T05:25:33;54645.75;;;-143.77;68.09
13836;BME280;6988;52.614;13.500;2023-12-29T05:30:25;54643.72;;;-143.77;68.06
13836;BME280;6988;52.614;13.500;2023-12-29T05:35:18;54637.56;;;-143.77;68.02
13836;BME280;6988;52.614;13.500;2023-12-29T05:40:12;54637.56;;;-143.77;67.91
13836;BME280;6988;52.614;13.500;2023-12-29T05:45:05;54639.59;;;-143.77;67.83
13836;BME280;6988;52.614;13.500;2023-12-29T05:49:57;54635.50;;;-143.77;67.89
13836;BME280;6988;52.614;13.500;2023-12-29T05:54:48;54625.25;;;-143.77;67.93
13836;BME280;6988;52.614;13.500;2023-12-29T05:59:41;54664.22;;;-143.77;67.80
13836;BME280;6988;52.614;13.500;2023-12-29T06:04:33;54606.78;;;-143.77;67.70
13836;BME280;6988;52.614;13.500;2023-12-29T06:09:25;54668.34;;;-143.77;67.36
13836;BME280;6988;52.614;13.500;2023-12-29T06:14:20;54627.28;;;-143.77;67.50
13836;BME280;6988;52.614;13.500;2023-12-29T06:19:13;54660.13;;;-143.77;67.16
13836;BME280;6988;52.614;13.500;2023-12-29T06:24:05;54664.22;;;-143.77;67.27
13836;BME280;6988;52.614;13.500;2023-12-29T06:28:57;54643.72;;;-143.77;67.20
13836;BME280;6988;52.614;13.500;2023-12-29T06:33:49;54641.66;;;-143.77;66.96
13836;BME280;6988;52.614;13.500;2023-12-29T06:38:42;54623.19;;;-143.77;66.69
13836;BME280;6988;52.614;13.500;2023-12-29T06:43:39;54653.97;;;-143.77;66.45
13836;BME280;6988;52.614;13.500;2023-12-29T06:48:30;54635.50;;;-143.77;66.42
13836;BME280;6988;52.614;13.500;2023-12-29T06:53:22;54598.56;;;-143.77;66.60
13836;BME280;6988;52.614;13.500;2023-12-29T06:58:16;54623.19;;;-143.77;66.28
13836;BME280;6988;52.614;13.500;2023-12-29T07:03:07;54641.66;;;-143.77;65.83
13836;BME280;6988;52.614;13.500;2023-12-29T07:07:59;54627.28;;;-143.77;65.70
13836;BME280;6988;52.614;13.500;2023-12-29T07:12:51;54623.19;;;-143.77;65.68
13836;BME280;6988;52.614;13.500;2023-12-29T07:17:44;54621.13;;;-143.77;65.75
13836;BME280;6988;52.614;13.500;2023-12-29T07:22:36;54621.13;;;-143.77;65.67
13836;BME280;6988;52.614;13.500;2023-12-29T07:27:28;54623.19;;;-143.77;65.38
13836;BME280;6988;52.614;13.500;2023-12-29T07:32:20;54602.66;;;-143.77;65.56
13836;BME280;6988;52.614;13.500;2023-12-29T07:37:13;54637.56;;;-143.77;65.50
13836;BME280;6988;52.614;13.500;2023-12-29T07:42:06;54625.25;;;-143.77;65.18
13836;BME280;6988;52.614;13.500;2023-12-29T07:46:58;54553.41;;;-143.77;65.41
13836;BME280;6988;52.614;13.500;2023-12-29T07:51:50;54645.75;;;-143.77;65.09
13836;BME280;6988;52.614;13.500;2023-12-29T07:56:43;54666.28;;;-143.77;65.36
13836;BME280;6988;52.614;13.500;2023-12-29T08:01:34;54588.31;;;-143.77;65.14
13836;BME280;6988;52.614;13.500;2023-12-29T08:06:27;54627.28;;;-143.77;65.54
13836;BME280;6988;52.614;13.500;2023-12-29T08:11:20;54610.88;;;-143.77;65.45
13836;BME280;6988;52.614;13.500;2023-12-29T08:16:14;54594.47;;;-143.77;65.24
13836;BME280;6988;52.614;13.500;2023-12-29T08:21:08;54598.56;;;-143.77;65.71
13836;BME280;6988;52.614;13.500;2023-12-29T08:26:02;54576.00;;;-143.77;65.41
13836;BME280;6988;52.614;13.500;2023-12-29T08:30:54;54576.00;;;-143.77;65.02
13836;BME280;6988;52.614;13.500;2023-12-29T08:35:47;54592.41;;;-143.77;64.75
13836;BME280;6988;52.614;13.500;2023-12-29T08:40:40;54524.69;;;-143.77;64.75
13836;BME280;6988;52.614;13.500;2023-12-29T08:45:31;54604.72;;;-143.77;64.58
13836;BME280;6988;52.614;13.500;2023-12-29T08:50:23;54617.03;;;-143.77;64.40
13836;BME280;6988;52.614;13.500;2023-12-29T08:55:16;54594.47;;;-143.77;64.40
13836;BME280;6988;52.614;13.500;2023-12-29T09:00:09;54590.34;;;-143.77;64.55
13836;BME280;6988;52.614;13.500;2023-12-29T09:05:01;54606.78;;;-143.77;64.43
13836;BME280;6988;52.614;13.500;2023-12-29T09:09:53;54578.03;;;-143.77;64.27
13836;BME280;6988;52.614;13.500;2023-12-29T09:14:46;54557.53;;;-143.77;64.26
13836;BME280;6988;52.614;13.500;2023-12-29T09:19:38;54553.41;;;-143.77;63.59
13836;BME280;6988;52.614;13.500;2023-12-29T09:24:30;54573.94;;;-143.77;63.65
13836;BME280;6988;52.614;13.500;2023-12-29T09:29:22;54590.34;;;-143.77;64.39
13836;BME280;6988;52.614;13.500;2023-12-29T09:34:15;54578.03;;;-143.77;64.63
13836;BME280;6988;52.614;13.500;2023-12-29T09:39:07;54586.25;;;-143.77;64.36
13836;BME280;6988;52.614;13.500;2023-12-29T09:44:03;54549.31;;;-143.77;64.37
13836;BME280;6988;52.614;13.500;2023-12-29T09:49:03;54582.16;;;-143.77;64.01
13836;BME280;6988;52.614;13.500;2023-12-29T09:53:57;54578.03;;;-143.77;63.92
13836;BME280;6988;52.614;13.500;2023-12-29T09:58:52;54549.31;;;-143.77;63.67
13836;BME280;6988;52.614;13.500;2023-12-29T10:03:47;54537.00;;;-143.77;63.80
13836;BME280;6988;52.614;13.500;2023-12-29T10:08:45;54565.72;;;-143.77;63.80
13836;BME280;6988;52.614;13.500;2023-12-29T10:13:41;54545.22;;;-143.77;63.90
13836;BME280;6988;52.614;13.500;2023-12-29T10:18:42;54508.28;;;-143.77;63.56
13836;BME280;6988;52.614;13.500;2023-12-29T10:23:41;54543.16;;;-143.77;63.28
13836;BME280;6988;52.614;13.500;2023-12-29T10:28:34;54551.38;;;-143.77;63.17
13836;BME280;6988;52.614;13.500;2023-12-29T10:33:28;54514.44;;;-143.77;62.78
13836;BME280;6988;52.614;13.500;2023-12-29T10:38:22;54545.22;;;-143.77;62.80
13836;BME280;6988;52.614;13.500;2023-12-29T10:43:22;54495.97;;;-143.77;62.23
13836;BME280;6988;52.614;13.500;2023-12-29T10:48:21;54522.63;;;-143.77;62.00
13836;BME280;6988;52.614;13.500;2023-12-29T10:53:16;54541.09;;;-143.77;61.93
13836;BME280;6988;52.614;13.500;2023-12-29T10:58:07;54506.22;;;-143.77;61.75
13836;BME280;6988;52.614;13.500;2023-12-29T11:02:59;54500.06;;;-143.77;61.55
13836;BME280;6988;52.614;13.500;2023-12-29T11:07:53;54524.69;;;-143.77;61.66
13836;BME280;6988;52.614;13.500;2023-12-29T11:12:48;54500.06;;;-143.77;61.41
13836;BME280;6988;52.614;13.500;2023-12-29T11:17:42;54510.34;;;-143.77;61.19
13836;BME280;6988;52.614;13.500;2023-12-29T11:22:39;54518.53;;;-143.77;61.15
13836;BME280;6988;52.614;13.500;2023-12-29T11:27:31;54520.59;;;-143.77;60.86
13836;BME280;6988;52.614;13.500;2023-12-29T11:32:34;54520.59;;;-143.77;60.66
13836;BME280;6988;52.614;13.500;2023-12-29T11:37:57;54524.69;;;-143.77;60.30
13836;BME280;6988;52.614;13.500;2023-12-29T11:42:54;54512.38;;;-143.77;60.67
13836;BME280;6988;52.614;13.500;2023-12-29T11:47:50;54532.91;;;-143.77;60.29
13836;BME280;6988;52.614;13.500;2023-12-29T11:52:44;54512.38;;;-143.77;60.18
13836;BME280;6988;52.614;13.500;2023-12-29T11:57:36;54483.66;;;-143.77;60.02
13836;BME280;6988;52.614;13.500;2023-12-29T12:02:29;54532.91;;;-143.77;60.20
13836;BME280;6988;52.614;13.500;2023-12-29T12:07:58;54504.19;;;-143.77;60.07
13836;BME280;6988;52.614;13.500;2023-12-29T12:12:51;54506.22;;;-143.77;60.39
13836;BME280;6988;52.614;13.500;2023-12-29T12:17:44;54508.28;;;-143.77;59.85
13836;BME280;6988;52.614;13.500;2023-12-29T12:22:37;54512.38;;;-143.77;60.05
13836;BME280;6988;52.614;13.500;2023-12-29T12:27:31;54547.25;;;-143.77;60.50
13836;BME280;6988;52.614;13.500;2023-12-29T12:32:30;54571.88;;;-143.77;60.58
13836;BME280;6988;52.614;13.500;2023-12-29T12:37:25;54516.50;;;-143.77;62.11
13836;BME280;6988;52.614;13.500;2023-12-29T12:42:17;54526.75;;;-143.77;65.20
13836;BME280;6988;52.614;13.500;2023-12-29T12:47:22;54551.38;;;-143.77;66.92
13836;BME280;6988;52.614;13.500;2023-12-29T12:52:15;54639.59;;;-143.77;67.96
13836;BME280;6988;52.614;13.500;2023-12-29T12:57:07;54586.25;;;-143.77;69.18
13836;BME280;6988;52.614;13.500;2023-12-29T13:02:00;54553.41;;;-143.77;70.71
13836;BME280;6988;52.614;13.500;2023-12-29T13:06:56;54549.31;;;-143.77;71.60
13836;BME280;6988;52.614;13.500;2023-12-29T13:11:48;54557.53;;;-143.77;71.88
13836;BME280;6988;52.614;13.500;2023-12-29T13:16:40;54621.13;;;-143.77;72.08
13836;BME280;6988;52.614;13.500;2023-12-29T13:21:32;54590.34;;;-143.77;72.75
13836;BME280;6988;52.614;13.500;2023-12-29T13:26:25;54598.56;;;-143.77;72.81
13836;BME280;6988;52.614;13.500;2023-12-29T13:31:19;54584.19;;;-143.77;73.01
13836;BME280;6988;52.614;13.500;2023-12-29T13:36:23;54598.56;;;-143.77;73.36
13836;BME280;6988;52.614;13.500;2023-12-29T13:41:22;54590.34;;;-143.77;73.01
13836;BME280;6988;52.614;13.500;2023-12-29T13:46:17;54614.97;;;-143.77;73.17
13836;BME280;6988;52.614;13.500;2023-12-29T13:51:10;54563.69;;;-143.77;72.29
13836;BME280;6988;52.614;13.500;2023-12-29T13:56:07;54586.25;;;-143.77;71.81
13836;BME280;6988;52.614;13.500;2023-12-29T14:01:03;54543.16;;;-143.77;70.51
13836;BME280;6988;52.614;13.500;2023-12-29T14:06:04;54541.09;;;-143.77;69.87
13836;BME280;6988;52.614;13.500;2023-12-29T14:10:58;54567.78;;;-143.77;69.70
13836;BME280;6988;52.614;13.500;2023-12-29T14:15:50;54549.31;;;-143.77;69.16
13836;BME280;6988;52.614;13.500;2023-12-29T14:20:42;54553.41;;;-143.77;69.01
13836;BME280;6988;52.614;13.500;2023-12-29T14:25:36;54614.97;;;-143.77;68.76
13836;BME280;6988;52.614;13.500;2023-12-29T14:30:28;54545.22;;;-143.77;68.63
13836;BME280;6988;52.614;13.500;2023-12-29T14:35:22;54528.78;;;-143.77;67.87
13836;BME280;6988;52.614;13.500;2023-12-29T14:40:13;54553.41;;;-143.77;68.18
13836;BME280;6988;52.614;13.500;2023-12-29T14:45:09;54545.22;;;-143.77;68.07
13836;BME280;6988;52.614;13.500;2023-12-29T14:50:01;54582.16;;;-143.77;67.83
13836;BME280;6988;52.614;13.500;2023-12-29T14:54:53;54582.16;;;-143.77;67.81
13836;BME280;6988;52.614;13.500;2023-12-29T14:59:44;54561.63;;;-143.77;67.70
13836;BME280;6988;52.614;13.500;2023-12-29T15:04:37;54608.81;;;-143.77;67.79
13836;BME280;6988;52.614;13.500;2023-12-29T15:09:29;54576.00;;;-143.77;67.07
13836;BME280;6988;52.614;13.500;2023-12-29T15:14:21;54537.00;;;-143.77;67.00
13836;BME280;6988;52.614;13.500;2023-12-29T15:19:13;54559.56;;;-143.77;67.26
13836;BME280;6988;52.614;13.500;2023-12-29T15:24:06;54580.09;;;-143.77;67.31
13836;BME280;6988;52.614;13.500;2023-12-29T15:28:58;54557.53;;;-143.77;67.72
13836;BME280;6988;52.614;13.500;2023-12-29T15:33:51;54534.94;;;-143.77;67.30
13836;BME280;6988;52.614;13.500;2023-12-29T15:38:43;54563.69;;;-143.77;67.74
13836;BME280;6988;52.614;13.500;2023-12-29T15:43:36;54532.91;;;-143.77;67.43
13836;BME280;6988;52.614;13.500;2023-12-29T15:48:28;54573.94;;;-143.77;67.50
13836;BME280;6988;52.614;13.500;2023-12-29T15:53:20;54555.47;;;-143.77;67.50
13836;BME280;6988;52.614;13.500;2023-12-29T15:58:12;54569.84;;;-143.77;67.85
13836;BME280;6988;52.614;13.500;2023-12-29T16:03:05;54532.91;;;-143.77;68.00
13836;BME280;6988;52.614;13.500;2023-12-29T16:07:57;54619.09;;;-143.77;68.53
13836;BME280;6988;52.614;13.500;2023-12-29T16:12:49;54539.06;;;-143.77;68.70
13836;BME280;6988;52.614;13.500;2023-12-29T16:17:41;54588.31;;;-143.77;68.94
13836;BME280;6988;52.614;13.500;2023-12-29T16:22:34;54559.56;;;-143.77;69.12
13836;BME280;6988;52.614;13.500;2023-12-29T16:27:26;54549.31;;;-143.77;69.85
13836;BME280;6988;52.614;13.500;2023-12-29T16:32:22;54549.31;;;-143.77;70.90
13836;BME280;6988;52.614;13.500;2023-12-29T16:37:16;54569.84;;;-143.77;72.40
13836;BME280;6988;52.614;13.500;2023-12-29T16:42:12;54551.38;;;-143.77;73.49
13836;BME280;6988;52.614;13.500;2023-12-29T16:47:07;54551.38;;;-143.77;71.69
13836;BME280;6988;52.614;13.500;2023-12-29T16:51:59;54596.50;;;-143.77;71.46
13836;BME280;6988;52.614;13.500;2023-12-29T16:56:52;54596.50;;;-143.77;70.91
13836;BME280;6988;52.614;13.500;2023-12-29T17:01:45;54539.06;;;-143.77;70.73
13836;BME280;6988;52.614;13.500;2023-12-29T17:06:37;54594.47;;;-143.77;70.66
13836;BME280;6988;52.614;13.500;2023-12-29T17:11:29;54561.63;;;-143.77;70.54
13836;BME280;6988;52.614;13.500;2023-12-29T17:16:21;54580.09;;;-143.77;70.90
13836;BME280;6988;52.614;13.500;2023-12-29T17:21:16;54614.97;;;-143.77;70.82
13836;BME280;6988;52.614;13.500;2023-12-29T17:26:09;54541.09;;;-143.77;70.95
13836;BME280;6988;52.614;13.500;2023-12-29T17:31:06;54592.41;;;-143.77;70.67
13836;BME280;6988;52.614;13.500;2023-12-29T17:35:57;54557.53;;;-143.77;70.60
13836;BME280;6988;52.614;13.500;2023-12-29T17:40:51;54563.69;;;-143.77;70.65
13836;BME280;6988;52.614;13.500;2023-12-29T17:45:42;54578.03;;;-143.77;70.59
13836;BME280;6988;52.614;13.500;2023-12-29T17:50:34;54576.00;;;-143.77;70.41
13836;BME280;6988;52.614;13.500;2023-12-29T17:55:26;54557.53;;;-143.77;70.42
13836;BME280;6988;52.614;13.500;2023-12-29T18:00:20;54534.94;;;-143.77;69.80
13836;BME280;6988;52.614;13.500;2023-12-29T18:05:12;54561.63;;;-143.77;70.12
13836;BME280;6988;52.614;13.500;2023-12-29T18:10:06;54553.41;;;-143.77;69.91
13836;BME280;6988;52.614;13.500;2023-12-29T18:14:59;54573.94;;;-143.77;70.09
13836;BME280;6988;52.614;13.500;2023-12-29T18:19:52;54524.69;;;-143.77;70.03
13836;BME280;6988;52.614;13.500;2023-12-29T18:24:44;54559.56;;;-143.77;69.73
13836;BME280;6988;52.614;13.500;2023-12-29T18:29:36;54545.22;;;-143.77;69.84
13836;BME280;6988;52.614;13.500;2023-12-29T18:34:28;54553.41;;;-143.77;69.68
13836;BME280;6988;52.614;13.500;2023-12-29T18:39:21;54553.41;;;-143.77;69.32
13836;BME280;6988;52.614;13.500;2023-12-29T18:44:13;54557.53;;;-143.77;68.77
13836;BME280;6988;52.614;13.500;2023-12-29T18:49:04;54537.00;;;-143.77;68.79
13836;BME280;6988;52.614;13.500;2023-12-29T18:53:56;54569.84;;;-143.77;68.45
13836;BME280;6988;52.614;13.500;2023-12-29T18:58:50;54565.72;;;-143.77;68.38
13836;BME280;6988;52.614;13.500;2023-12-29T19:03:42;54532.91;;;-143.77;67.98
13836;BME280;6988;52.614;13.500;2023-12-29T19:08:34;54559.56;;;-143.77;67.80
13836;BME280;6988;52.614;13.500;2023-12-29T19:13:26;54584.19;;;-143.77;67.54
13836;BME280;6988;52.614;13.500;2023-12-29T19:18:19;54573.94;;;-143.77;67.34
13836;BME280;6988;52.614;13.500;2023-12-29T19:23:11;54573.94;;;-143.77;66.80
13836;BME280;6988;52.614;13.500;2023-12-29T19:28:03;54522.63;;;-143.77;66.41
13836;BME280;6988;52.614;13.500;2023-12-29T19:32:56;54596.50;;;-143.77;66.74
13836;BME280;6988;52.614;13.500;2023-12-29T19:37:49;54555.47;;;-143.77;67.18
13836;BME280;6988;52.614;13.500;2023-12-29T19:42:41;54582.16;;;-143.77;66.88
13836;BME280;6988;52.614;13.500;2023-12-29T19:47:34;54567.78;;;-143.77;67.87
13836;BME280;6988;52.614;13.500;2023-12-29T19:52:25;54582.16;;;-143.77;67.20
13836;BME280;6988;52.614;13.500;2023-12-29T19:57:19;54602.66;;;-143.77;67.33
13836;BME280;6988;52.614;13.500;2023-12-29T20:02:10;54645.75;;;-143.77;69.14
13836;BME280;6988;52.614;13.500;2023-12-29T20:07:03;54614.97;;;-143.77;69.29
13836;BME280;6988;52.614;13.500;2023-12-29T20:11:55;54608.81;;;-143.77;69.68
13836;BME280;6988;52.614;13.500;2023-12-29T20:16:48;54573.94;;;-143.77;70.03
13836;BME280;6988;52.614;13.500;2023-12-29T20:21:40;54596.50;;;-143.77;71.04
13836;BME280;6988;52.614;13.500;2023-12-29T20:26:35;54598.56;;;-143.77;71.09
13836;BME280;6988;52.614;13.500;2023-12-29T20:31:28;54614.97;;;-143.77;71.63
13836;BME280;6988;52.614;13.500;2023-12-29T20:36:23;54598.56;;;-143.77;72.39
13836;BME280;6988;52.614;13.500;2023-12-29T20:56:23;54594.47;;;-143.77;75.86
13836;BME280;6988;52.614;13.500;2023-12-29T21:01:18;54594.47;;;-143.77;77.09
13836;BME280;6988;52.614;13.500;2023-12-29T21:06:15;54627.28;;;-143.77;79.15
13836;BME280;6988;52.614;13.500;2023-12-29T21:17:15;54672.44;;;-143.77;81.26
13836;BME280;6988;52.614;13.500;2023-12-29T21:22:13;54647.81;;;-143.77;82.36
13836;BME280;6988;52.614;13.500;2023-12-29T21:27:05;54664.22;;;-143.77;83.23
13836;BME280;6988;52.614;13.500;2023-12-29T21:31:57;54668.34;;;-143.77;83.72
13836;BME280;6988;52.614;13.500;2023-12-29T21:36:52;54649.88;;;-143.77;84.31
13836;BME280;6988;52.614;13.500;2023-12-29T21:41:46;54647.81;;;-143.77;84.73
13836;BME280;6988;52.614;13.500;2023-12-29T21:46:40;54664.22;;;-143.77;84.67
13836;BME280;6988;52.614;13.500;2023-12-29T21:51:33;54643.72;;;-143.77;84.90
13836;BME280;6988;52.614;13.500;2023-12-29T21:56:27;54658.06;;;-143.77;84.73
13836;BME280;6988;52.614;13.500;2023-12-29T22:01:31;54699.13;;;-143.77;84.77
13836;BME280;6988;52.614;13.500;2023-12-29T22:06:24;54697.06;;;-143.77;85.13
13836;BME280;6988;52.614;13.500;2023-12-29T22:11:17;54668.34;;;-143.77;85.25
13836;BME280;6988;52.614;13.500;2023-12-29T22:16:12;54674.50;;;-143.77;85.71
13836;BME280;6988;52.614;13.500;2023-12-29T22:21:04;54627.28;;;-143.77;85.69
13836;BME280;6988;52.614;13.500;2023-12-29T22:25:57;54643.72;;;-143.77;86.07
13836;BME280;6988;52.614;13.500;2023-12-29T22:30:49;54660.13;;;-143.77;85.95
13836;BME280;6988;52.614;13.500;2023-12-29T22:35:42;54717.59;;;-143.77;85.71
13836;BME280;6988;52.614;13.500;2023-12-29T22:40:36;54656.03;;;-143.77;85.36
13836;BME280;6988;52.614;13.500;2023-12-29T22:45:29;54662.19;;;-143.77;85.41
13836;BME280;6988;52.614;13.500;2023-12-29T23:04:33;54619.09;;;-143.77;87.71
13836;BME280;6988;52.614;13.500;2023-12-29T23:09:26;54631.41;;;-143.77;87.73
13836;BME280;6988;52.614;13.500;2023-12-29T23:14:19;54672.44;;;-143.77;81.88
13836;BME280;6988;52.614;13.500;2023-12-29T23:19:11;54664.22;;;-143.77;79.64
13836;BME280;6988;52.614;13.500;2023-12-29T23:24:05;54660.13;;;-143.77;80.16
13836;BME280;6988;52.614;13.500;2023-12-29T23:28:58;54725.78;;;-143.77;82.02
13836;BME280;6988;52.614;13.500;2023-12-29T23:33:50;54682.69;;;-143.77;83.57
13836;BME280;6988;52.614;13.500;2023-12-29T23:38:42;54666.28;;;-143.77;84.70
13836;BME280;6988;52.614;13.500;2023-12-29T23:43:35;54725.78;;;-143.77;85.32
13836;BME280;6988;52.614;13.500;2023-12-29T23:48:27;54703.22;;;-143.77;85.86
13836;BME280;6988;52.614;13.500;2023-12-29T23:53:20;54697.06;;;-143.77;85.86
13836;BME280;6988;52.614;13.500;2023-12-29T23:58:12;54647.81;;;-143.77;86.07
